createdAt,value
2023-05-13T00:01:21.245Z,3.50
2023-05-13T00:03:50.790Z,3.33
2023-05-13T00:06:18.813Z,4.10
2023-05-13T00:08:46.947Z,3.58
2023-05-13T00:11:14.867Z,4.40
2023-05-13T00:13:42.791Z,4.43
2023-05-13T00:16:10.716Z,4.50
2023-05-13T00:18:38.726Z,3.80
2023-05-13T00:21:08.594Z,4.00
2023-05-13T00:23:36.527Z,4.30
2023-05-13T00:26:04.461Z,4.03
2023-05-13T00:28:32.464Z,4.18
2023-05-13T00:31:00.455Z,4.22
2023-05-13T00:33:28.359Z,3.85
2023-05-13T00:35:56.343Z,4.05
2023-05-13T00:38:25.636Z,3.70
2023-05-13T00:40:53.476Z,3.90
2023-05-13T00:43:21.373Z,5.30
2023-05-13T00:45:49.330Z,4.25
2023-05-13T00:48:17.517Z,4.00
2023-05-13T00:50:45.674Z,5.05
2023-05-13T00:53:14.199Z,4.55
2023-05-13T00:55:44.577Z,4.55
2023-05-13T01:00:48.278Z,4.15
2023-05-13T01:03:23.100Z,4.95
2023-05-13T01:06:00.114Z,4.30
2023-05-13T01:08:38.877Z,4.18
2023-05-13T01:11:14.793Z,3.75
2023-05-13T01:13:45.888Z,4.68
2023-05-13T01:16:19.435Z,4.30
2023-05-13T01:18:53.751Z,4.10
2023-05-13T01:21:26.701Z,3.83
2023-05-13T01:23:54.693Z,4.20
2023-05-13T01:26:24.249Z,4.35
2023-05-13T01:28:52.247Z,4.35
2023-05-13T01:31:20.912Z,4.68
2023-05-13T01:33:50.276Z,3.70
2023-05-13T01:36:19.142Z,3.43
2023-05-13T01:38:49.268Z,4.50
2023-05-13T01:41:17.397Z,4.57
2023-05-13T01:43:45.412Z,3.90
2023-05-13T01:46:13.827Z,4.53
2023-05-13T01:48:41.822Z,4.57
2023-05-13T01:51:10.527Z,4.80
2023-05-13T01:53:38.492Z,4.40
2023-05-13T01:56:10.471Z,4.25
2023-05-13T01:58:38.353Z,4.72
2023-05-13T02:01:06.303Z,4.10
2023-05-13T02:03:34.625Z,4.35
2023-05-13T02:06:03.203Z,4.50
2023-05-13T02:08:31.189Z,4.13
2023-05-13T02:10:59.776Z,4.38
2023-05-13T02:13:29.002Z,4.82
2023-05-13T02:15:56.963Z,5.10
2023-05-13T02:18:24.936Z,4.22
2023-05-13T02:20:52.917Z,4.90
2023-05-13T02:23:20.824Z,4.63
2023-05-13T02:25:48.703Z,4.57
2023-05-13T02:28:16.669Z,4.03
2023-05-13T02:30:46.141Z,4.50
2023-05-13T02:33:14.007Z,5.03
2023-05-13T02:35:42.015Z,4.78
2023-05-13T02:38:10.735Z,4.93
2023-05-13T02:40:38.921Z,4.57
2023-05-13T02:43:06.824Z,5.20
2023-05-13T02:45:34.803Z,4.70
2023-05-13T02:48:04.235Z,5.07
2023-05-13T02:50:32.205Z,4.87
2023-05-13T02:53:00.138Z,4.72
2023-05-13T02:55:28.213Z,4.57
2023-05-13T02:57:56.863Z,4.68
2023-05-13T03:00:24.890Z,4.43
2023-05-13T03:02:52.923Z,5.05
2023-05-13T03:05:22.288Z,4.82
2023-05-13T03:07:50.152Z,5.60
2023-05-13T03:10:18.136Z,4.82
2023-05-13T03:12:46.113Z,5.00
2023-05-13T03:15:15.811Z,5.00
2023-05-13T03:17:44.494Z,5.07
2023-05-13T03:20:13.293Z,5.03
2023-05-13T03:22:43.169Z,5.05
2023-05-13T03:25:11.111Z,4.50
2023-05-13T03:27:39.889Z,4.50
2023-05-13T03:30:08.983Z,4.97
2023-05-13T03:32:36.926Z,4.68
2023-05-13T03:35:05.153Z,4.95
2023-05-13T03:37:33.063Z,5.00
2023-05-13T03:40:02.360Z,5.30
2023-05-13T03:42:30.709Z,4.97
2023-05-13T03:44:58.737Z,5.07
2023-05-13T03:47:26.835Z,4.82
2023-05-13T03:49:54.738Z,5.40
2023-05-13T03:52:22.620Z,4.68
2023-05-13T03:54:50.428Z,5.15
2023-05-13T03:57:19.634Z,5.10
2023-05-13T03:59:47.602Z,5.00
2023-05-13T04:02:15.522Z,5.15
2023-05-13T04:04:43.417Z,5.15
2023-05-13T04:07:11.366Z,5.10
2023-05-13T04:09:39.958Z,5.43
2023-05-13T04:12:08.187Z,5.25
2023-05-13T04:14:37.678Z,5.65
2023-05-13T04:17:06.003Z,6.63
2023-05-13T04:19:34.063Z,5.40
2023-05-13T04:22:01.956Z,5.03
2023-05-13T04:24:29.801Z,4.68
2023-05-13T04:26:58.999Z,5.05
2023-05-13T04:29:28.651Z,5.22
2023-05-13T04:31:57.967Z,4.80
2023-05-13T04:34:26.096Z,5.13
2023-05-13T04:36:53.975Z,4.75
2023-05-13T04:39:21.821Z,5.15
2023-05-13T04:41:49.739Z,4.95
2023-05-13T04:44:17.610Z,5.05
2023-05-13T04:46:45.636Z,5.70
2023-05-13T04:49:14.966Z,5.13
2023-05-13T04:51:43.260Z,5.18
2023-05-13T04:54:11.597Z,5.15
2023-05-13T04:56:39.486Z,4.55
2023-05-13T04:59:07.505Z,4.78
2023-05-13T05:01:35.444Z,4.78
2023-05-13T05:04:03.590Z,4.53
2023-05-13T05:06:33.587Z,4.75
2023-05-13T05:09:01.497Z,4.65
2023-05-13T05:11:29.414Z,4.50
2023-05-13T05:13:57.323Z,4.57
2023-05-13T05:16:25.207Z,5.05
2023-05-13T05:18:53.224Z,4.30
2023-05-13T05:21:21.473Z,4.93
2023-05-13T05:23:50.860Z,4.50
2023-05-13T05:26:18.682Z,4.35
2023-05-13T05:28:47.214Z,4.60
2023-05-13T05:31:15.431Z,3.90
2023-05-13T05:33:43.499Z,4.43
2023-05-13T05:36:11.410Z,4.20
2023-05-13T05:38:39.377Z,3.80
2023-05-13T05:41:10.961Z,4.25
2023-05-13T05:43:38.879Z,4.28
2023-05-13T05:46:06.918Z,3.88
2023-05-13T05:48:35.018Z,3.70
2023-05-13T05:51:03.419Z,4.07
2023-05-13T05:53:31.788Z,4.28
2023-05-13T05:55:59.700Z,3.97
2023-05-13T05:58:29.061Z,4.43
2023-05-13T06:00:57.091Z,3.42
2023-05-13T06:03:25.435Z,3.38
2023-05-13T06:05:53.595Z,3.40
2023-05-13T06:08:22.592Z,4.43
2023-05-13T06:10:50.528Z,4.13
2023-05-13T06:13:18.448Z,3.47
2023-05-13T06:15:47.757Z,3.20
2023-05-13T06:18:15.852Z,3.55
2023-05-13T06:20:43.744Z,3.38
2023-05-13T06:23:11.806Z,3.58
2023-05-13T06:25:39.720Z,3.50
2023-05-13T06:28:08.585Z,3.45
2023-05-13T06:30:37.026Z,3.38
2023-05-13T06:33:06.482Z,3.28
2023-05-13T06:35:34.420Z,3.33
2023-05-13T06:38:02.259Z,3.30
2023-05-13T06:40:30.115Z,3.00
2023-05-13T06:42:58.069Z,4.32
2023-05-13T06:45:26.281Z,3.10
2023-05-13T06:47:54.801Z,3.45
2023-05-13T06:50:24.313Z,3.10
2023-05-13T06:52:52.376Z,3.63
2023-05-13T06:55:22.806Z,2.95
2023-05-13T07:00:19.337Z,3.20
2023-05-13T07:02:47.402Z,3.05
2023-05-13T07:05:15.391Z,3.33
2023-05-13T07:07:44.733Z,2.78
2023-05-13T07:10:12.669Z,3.13
2023-05-13T07:12:40.568Z,2.97
2023-05-13T07:15:09.462Z,3.30
2023-05-13T07:17:37.506Z,3.00
2023-05-13T07:20:06.050Z,3.35
2023-05-13T07:22:33.926Z,2.80
2023-05-13T07:25:04.184Z,3.47
2023-05-13T07:27:32.036Z,3.00
2023-05-13T07:29:59.966Z,3.33
2023-05-13T07:32:28.175Z,3.72
2023-05-13T07:34:56.396Z,3.50
2023-05-13T07:37:24.668Z,3.25
2023-05-13T07:39:53.546Z,3.53
2023-05-13T07:42:22.897Z,3.30
2023-05-13T07:44:50.946Z,3.42
2023-05-13T07:47:18.869Z,3.15
2023-05-13T07:49:46.814Z,3.42
2023-05-13T07:52:14.740Z,3.15
2023-05-13T07:54:42.660Z,3.53
2023-05-13T07:57:10.526Z,3.47
2023-05-13T07:59:39.752Z,3.20
2023-05-13T08:02:07.936Z,3.30
2023-05-13T08:04:35.918Z,3.60
2023-05-13T08:07:03.874Z,3.50
2023-05-13T08:09:31.783Z,3.20
2023-05-13T08:11:59.608Z,2.97
2023-05-13T08:14:27.686Z,3.45
2023-05-13T08:16:57.112Z,3.10
2023-05-13T08:19:24.989Z,2.85
2023-05-13T08:21:52.861Z,3.05
2023-05-13T08:24:20.871Z,3.05
2023-05-13T08:26:48.739Z,3.30
2023-05-13T08:29:16.541Z,2.72
2023-05-13T08:31:44.555Z,3.20
2023-05-13T08:34:13.937Z,3.00
2023-05-13T08:36:41.829Z,3.05
2023-05-13T08:39:09.728Z,3.05
2023-05-13T08:41:38.816Z,3.00
2023-05-13T08:44:10.457Z,2.70
2023-05-13T08:46:39.977Z,2.63
2023-05-13T08:49:09.498Z,2.60
2023-05-13T08:51:38.897Z,3.00
2023-05-13T08:54:10.216Z,2.85
2023-05-13T08:56:38.125Z,3.40
2023-05-13T08:59:06.054Z,2.83
2023-05-13T09:01:35.479Z,3.35
2023-05-13T09:04:07.375Z,3.15
2023-05-13T09:06:35.322Z,3.08
2023-05-13T09:09:05.932Z,3.08
2023-05-13T09:11:34.811Z,2.92
2023-05-13T09:14:07.230Z,3.00
2023-05-13T09:16:36.508Z,3.10
2023-05-13T09:19:06.264Z,2.88
2023-05-13T09:21:35.536Z,3.30
2023-05-13T09:24:09.491Z,3.25
2023-05-13T09:26:39.637Z,3.10
2023-05-13T09:29:22.571Z,3.55
2023-05-13T09:31:52.469Z,3.17
2023-05-13T09:34:28.541Z,3.78
2023-05-13T09:36:58.160Z,3.97
2023-05-13T09:39:27.970Z,3.37
2023-05-13T09:41:56.497Z,3.55
2023-05-13T09:44:24.601Z,3.78
2023-05-13T09:46:54.280Z,3.72
2023-05-13T09:49:24.739Z,3.60
2023-05-13T09:54:20.551Z,3.58
2023-05-13T09:56:49.904Z,3.60
2023-05-13T09:59:18.227Z,3.47
2023-05-13T10:01:47.597Z,4.03
2023-05-13T10:04:16.680Z,3.20
2023-05-13T10:06:46.589Z,3.63
2023-05-13T10:09:17.797Z,3.88
2023-05-13T10:11:49.740Z,4.45
2023-05-13T10:14:18.282Z,3.42
2023-05-13T10:16:48.009Z,3.42
2023-05-13T10:19:16.489Z,3.90
2023-05-13T10:21:45.476Z,3.63
2023-05-13T10:24:14.612Z,3.90
2023-05-13T10:26:43.782Z,4.20
2023-05-13T10:29:13.801Z,3.60
2023-05-13T10:31:43.155Z,3.83
2023-05-13T10:34:12.165Z,3.55
2023-05-13T10:36:59.382Z,3.55
2023-05-13T10:39:58.621Z,3.92
2023-05-13T10:42:40.542Z,3.63
2023-05-13T10:45:11.054Z,3.75
2023-05-13T10:47:39.497Z,3.97
2023-05-13T10:50:09.038Z,3.90
2023-05-13T10:52:44.321Z,3.72
2023-05-13T10:55:18.243Z,4.00
2023-05-13T10:58:09.490Z,3.17
2023-05-13T11:00:39.637Z,2.95
2023-05-13T11:03:15.952Z,3.22
2023-05-13T11:05:48.355Z,3.58
2023-05-13T11:08:37.120Z,3.55
2023-05-13T11:11:18.765Z,3.72
2023-05-13T11:13:46.762Z,3.38
2023-05-13T11:16:16.223Z,2.90
2023-05-13T11:18:44.230Z,3.17
2023-05-13T11:21:12.376Z,3.75
2023-05-13T11:23:54.780Z,3.42
2023-05-13T11:26:23.044Z,2.70
2023-05-13T11:28:58.294Z,3.30
2023-05-13T11:31:29.962Z,2.97
2023-05-13T11:34:07.753Z,3.30
2023-05-13T11:36:37.768Z,2.92
2023-05-13T11:39:11.270Z,3.30
2023-05-13T11:41:41.198Z,3.03
2023-05-13T11:44:09.420Z,2.97
2023-05-13T11:46:38.668Z,2.95
2023-05-13T11:49:07.485Z,3.03
2023-05-13T11:51:35.644Z,2.85
2023-05-13T11:54:04.209Z,3.00
2023-05-13T11:56:32.273Z,3.50
2023-05-13T11:59:15.896Z,3.22
2023-05-13T12:01:45.209Z,2.80
2023-05-13T12:04:13.680Z,3.13
2023-05-13T12:06:46.805Z,3.20
2023-05-13T12:09:14.770Z,3.22
2023-05-13T12:11:43.377Z,3.67
2023-05-13T12:14:13.650Z,2.85
2023-05-13T12:16:42.063Z,2.80
2023-05-13T12:19:12.445Z,2.88
2023-05-13T12:24:21.700Z,3.30
2023-05-13T12:26:50.274Z,3.13
2023-05-13T12:29:18.241Z,3.10
2023-05-13T12:32:04.749Z,3.25
2023-05-13T12:34:35.343Z,2.95
2023-05-13T12:37:13.453Z,3.10
2023-05-13T12:39:41.913Z,2.78
2023-05-13T12:42:18.546Z,3.72
2023-05-13T12:44:47.141Z,2.80
2023-05-13T12:47:19.317Z,3.30
2023-05-13T12:49:55.081Z,2.50
2023-05-13T12:52:23.212Z,2.65
2023-05-13T12:54:51.757Z,3.22
2023-05-13T12:57:20.600Z,3.03
2023-05-13T12:59:48.593Z,2.58
2023-05-13T13:02:16.466Z,3.08
2023-05-13T13:04:44.374Z,3.08
2023-05-13T13:07:14.739Z,2.72
2023-05-13T13:12:10.475Z,2.97
2023-05-13T13:14:39.948Z,3.20
2023-05-13T13:17:08.252Z,2.78
2023-05-13T13:19:36.456Z,3.03
2023-05-13T13:22:04.444Z,2.80
2023-05-13T13:24:33.822Z,2.83
2023-05-13T13:27:01.707Z,2.90
2023-05-13T13:29:29.628Z,2.92
2023-05-13T13:31:57.612Z,3.13
2023-05-13T13:34:27.918Z,3.20
2023-05-13T13:36:55.834Z,2.58
2023-05-13T13:39:23.640Z,2.63
2023-05-13T13:41:53.232Z,3.00
2023-05-13T13:44:21.185Z,3.07
2023-05-13T13:46:49.033Z,2.70
2023-05-13T13:49:23.672Z,3.05
2023-05-13T13:51:52.473Z,2.38
2023-05-13T13:54:20.596Z,2.97
2023-05-13T13:56:49.314Z,2.70
2023-05-13T13:59:19.270Z,2.55
2023-05-13T14:01:47.642Z,2.92
2023-05-13T14:04:19.810Z,3.15
2023-05-13T14:06:48.099Z,2.40
2023-05-13T14:09:16.204Z,2.70
2023-05-13T14:11:44.147Z,2.60
2023-05-13T14:14:12.072Z,2.47
2023-05-13T14:16:41.543Z,2.40
2023-05-13T14:19:09.465Z,2.67
2023-05-13T14:21:37.344Z,2.70
2023-05-13T14:24:05.841Z,2.70
2023-05-13T14:26:33.736Z,2.40
2023-05-13T14:29:02.689Z,3.30
2023-05-13T14:31:30.973Z,2.70
2023-05-13T14:34:00.310Z,2.40
2023-05-13T14:36:28.282Z,2.72
2023-05-13T14:38:56.180Z,2.90
2023-05-13T14:41:25.537Z,2.83
2023-05-13T14:43:53.414Z,2.38
2023-05-13T14:46:21.393Z,2.83
2023-05-13T14:48:49.273Z,2.70
2023-05-13T14:51:18.482Z,2.67
2023-05-13T14:53:46.348Z,1.73
2023-05-13T14:56:14.374Z,2.42
2023-05-13T14:58:42.581Z,2.03
2023-05-13T15:01:10.531Z,2.15
2023-05-13T15:03:38.883Z,2.53
2023-05-13T15:06:07.464Z,2.30
2023-05-13T15:08:37.749Z,2.50
2023-05-13T15:11:05.882Z,2.42
2023-05-13T15:13:35.355Z,2.50
2023-05-13T15:16:03.579Z,2.58
2023-05-13T15:18:31.872Z,2.40
2023-05-13T15:20:59.792Z,2.50
2023-05-13T15:23:27.721Z,2.70
2023-05-13T15:25:57.163Z,2.58
2023-05-13T15:28:25.096Z,2.13
2023-05-13T15:30:53.087Z,2.40
2023-05-13T15:33:21.077Z,2.58
2023-05-13T15:35:49.032Z,2.47
2023-05-13T15:38:16.968Z,2.78
2023-05-13T15:40:44.957Z,2.45
2023-05-13T15:43:14.296Z,2.42
2023-05-13T15:45:42.254Z,2.40
2023-05-13T15:48:10.278Z,2.65
2023-05-13T15:50:38.260Z,2.40
2023-05-13T15:53:06.229Z,2.40
2023-05-13T15:55:34.399Z,2.50
2023-05-13T15:58:02.346Z,2.08
2023-05-13T16:00:31.761Z,2.58
2023-05-13T16:02:59.683Z,2.40
2023-05-13T16:05:27.628Z,2.45
2023-05-13T16:07:56.050Z,2.38
2023-05-13T16:10:24.372Z,2.78
2023-05-13T16:12:52.478Z,2.45
2023-05-13T16:15:20.519Z,2.53
2023-05-13T16:17:49.905Z,2.33
2023-05-13T16:20:17.824Z,2.80
2023-05-13T16:22:45.750Z,2.47
2023-05-13T16:25:13.722Z,2.45
2023-05-13T16:27:43.205Z,2.03
2023-05-13T16:30:12.080Z,2.53
2023-05-13T16:32:40.197Z,2.78
2023-05-13T16:35:11.832Z,2.00
2023-05-13T16:37:39.914Z,2.78
2023-05-13T16:40:08.978Z,2.70
2023-05-13T16:42:37.121Z,2.33
2023-05-13T16:45:05.784Z,2.80
2023-05-13T16:47:33.652Z,2.75
2023-05-13T16:50:01.577Z,2.53
2023-05-13T16:52:32.543Z,2.92
2023-05-13T16:55:00.466Z,3.22
2023-05-13T16:57:28.491Z,2.75
2023-05-13T16:59:56.373Z,2.60
2023-05-13T17:02:24.498Z,3.08
2023-05-13T17:04:52.454Z,2.63
2023-05-13T17:07:20.561Z,2.88
2023-05-13T17:09:49.843Z,2.88
2023-05-13T17:12:17.804Z,3.50
2023-05-13T17:14:45.677Z,2.90
2023-05-13T17:17:13.736Z,2.80
2023-05-13T17:19:42.738Z,3.13
2023-05-13T17:22:10.648Z,2.72
2023-05-13T17:24:39.856Z,2.53
2023-05-13T17:27:09.329Z,3.30
2023-05-13T17:29:37.556Z,2.57
2023-05-13T17:32:05.983Z,2.70
2023-05-13T17:34:33.900Z,2.70
2023-05-13T17:37:01.841Z,3.03
2023-05-13T17:39:29.829Z,3.42
2023-05-13T17:41:57.632Z,3.00
2023-05-13T17:44:27.021Z,2.50
2023-05-13T17:46:55.695Z,2.80
2023-05-13T17:49:23.617Z,2.70
2023-05-13T17:51:51.477Z,3.40
2023-05-13T17:54:19.337Z,2.80
2023-05-13T17:56:47.322Z,2.28
2023-05-13T17:59:15.241Z,2.78
2023-05-13T18:01:44.667Z,2.90
2023-05-13T18:04:12.694Z,2.78
2023-05-13T18:06:40.549Z,2.83
2023-05-13T18:09:11.430Z,2.88
2023-05-13T18:11:39.408Z,2.50
2023-05-13T18:14:07.905Z,3.13
2023-05-13T18:16:35.894Z,3.30
2023-05-13T18:19:06.773Z,2.47
2023-05-13T18:21:34.760Z,2.63
2023-05-13T18:24:02.601Z,3.38
2023-05-13T18:26:30.600Z,2.95
2023-05-13T18:28:58.440Z,3.10
2023-05-13T18:31:26.402Z,2.88
2023-05-13T18:33:54.301Z,2.40
2023-05-13T18:36:23.704Z,2.80
2023-05-13T18:38:51.731Z,2.50
2023-05-13T18:41:19.576Z,3.22
2023-05-13T18:43:47.482Z,2.92
2023-05-13T18:46:15.535Z,2.95
2023-05-13T18:48:43.546Z,2.65
2023-05-13T18:51:12.041Z,3.75
2023-05-13T18:53:41.356Z,3.05
2023-05-13T18:56:09.334Z,3.08
2023-05-13T18:58:37.396Z,3.53
2023-05-13T19:01:05.551Z,3.90
2023-05-13T19:03:33.547Z,2.97
2023-05-13T19:06:01.457Z,2.88
2023-05-13T19:08:29.575Z,2.75
2023-05-13T19:10:58.941Z,3.60
2023-05-13T19:13:36.264Z,3.13
2023-05-13T19:16:14.451Z,3.28
2023-05-13T19:18:42.546Z,3.55
2023-05-13T19:21:10.854Z,3.08
2023-05-13T19:23:39.329Z,2.88
2023-05-13T19:26:09.740Z,3.22
2023-05-13T19:28:39.091Z,3.42
2023-05-13T19:31:07.568Z,3.10
2023-05-13T19:33:37.232Z,2.92
2023-05-13T19:36:05.501Z,3.05
2023-05-13T19:40:47.985Z,3.10
2023-05-13T19:43:16.386Z,2.70
2023-05-13T19:45:44.709Z,2.80
2023-05-13T19:48:13.580Z,3.22
2023-05-13T19:50:41.683Z,3.22
2023-05-13T19:53:10.102Z,3.28
2023-05-13T19:55:38.314Z,2.65
2023-05-13T19:58:07.728Z,2.72
2023-05-13T20:00:35.700Z,3.42
2023-05-13T20:03:03.941Z,3.35
2023-05-13T20:05:34.338Z,2.92
2023-05-13T20:08:02.566Z,3.15
2023-05-13T20:10:30.830Z,3.38
2023-05-13T20:12:59.126Z,2.65
2023-05-13T20:15:28.419Z,2.97
2023-05-13T20:17:56.792Z,2.80
2023-05-13T20:20:24.991Z,3.08
2023-05-13T20:22:53.394Z,2.83
2023-05-13T20:25:21.681Z,3.10
2023-05-13T20:27:49.938Z,3.30
2023-05-13T20:30:18.416Z,3.20
2023-05-13T20:32:48.085Z,3.28
2023-05-13T20:35:16.279Z,3.33
2023-05-13T20:37:44.393Z,3.40
2023-05-13T20:40:12.949Z,3.60
2023-05-13T20:42:41.427Z,3.20
2023-05-13T20:45:09.932Z,3.83
2023-05-13T20:47:38.176Z,3.10
2023-05-13T20:50:12.065Z,3.30
2023-05-13T20:52:44.288Z,3.30
2023-05-13T20:55:12.319Z,2.75
2023-05-13T20:57:40.372Z,3.60
2023-05-13T21:00:10.615Z,3.28
2023-05-13T21:02:38.670Z,3.30
2023-05-13T21:05:07.992Z,3.10
2023-05-13T21:07:37.291Z,4.00
2023-05-13T21:10:06.065Z,4.97
2023-05-13T21:12:33.960Z,4.18
2023-05-13T21:15:01.816Z,3.55
2023-05-13T21:17:29.766Z,3.67
2023-05-13T21:19:57.725Z,3.70
2023-05-13T21:22:25.687Z,3.15
2023-05-13T21:24:55.060Z,3.40
2023-05-13T21:27:22.973Z,4.00
2023-05-13T21:29:50.764Z,3.55
2023-05-13T21:32:18.634Z,3.65
2023-05-13T21:34:46.592Z,3.65
2023-05-13T21:37:14.454Z,3.78
2023-05-13T21:39:42.398Z,4.22
2023-05-13T21:42:11.720Z,3.75
2023-05-13T21:44:40.944Z,3.83
2023-05-13T21:47:08.929Z,3.92
2023-05-13T21:49:36.904Z,4.10
2023-05-13T21:52:05.125Z,3.83
2023-05-13T21:54:33.099Z,4.38
2023-05-13T21:57:01.971Z,4.35
2023-05-13T21:59:31.319Z,3.90
2023-05-13T22:01:59.285Z,4.53
2023-05-13T22:04:27.261Z,4.45
2023-05-13T22:06:55.134Z,5.43
2023-05-13T22:09:22.932Z,4.30
2023-05-13T22:11:51.174Z,4.70
2023-05-13T22:14:19.177Z,4.82
2023-05-13T22:17:00.820Z,4.05
2023-05-13T22:19:36.272Z,4.57
2023-05-13T22:22:04.284Z,4.70
2023-05-13T22:24:32.310Z,4.72
2023-05-13T22:27:00.302Z,4.50
2023-05-13T22:29:28.318Z,4.70
2023-05-13T22:31:58.427Z,4.07
2023-05-13T22:34:27.131Z,4.28
2023-05-13T22:36:55.176Z,3.80
2023-05-13T22:39:23.127Z,4.65
2023-05-13T22:41:51.298Z,5.03
2023-05-13T22:44:19.162Z,4.45
2023-05-13T22:46:47.238Z,4.68
2023-05-13T22:49:16.558Z,4.22
2023-05-13T22:51:44.475Z,4.20
2023-05-13T22:54:12.380Z,4.13
2023-05-13T22:56:40.195Z,5.15
2023-05-13T22:59:08.194Z,4.45
2023-05-13T23:01:36.104Z,5.15
2023-05-13T23:04:05.681Z,5.03
2023-05-13T23:06:35.044Z,4.43
2023-05-13T23:09:02.955Z,4.55
2023-05-13T23:11:30.871Z,4.32
2023-05-13T23:13:58.790Z,4.38
2023-05-13T23:16:26.726Z,4.35
2023-05-13T23:18:55.884Z,4.88
2023-05-13T23:21:23.942Z,4.68
2023-05-13T23:23:53.755Z,4.75
2023-05-13T23:26:22.152Z,5.57
2023-05-13T23:28:49.977Z,4.90
2023-05-13T23:31:17.925Z,5.00
2023-05-13T23:33:45.844Z,5.72
2023-05-13T23:36:15.746Z,5.15
2023-05-13T23:38:44.081Z,5.63
2023-05-13T23:41:13.358Z,4.90
2023-05-13T23:43:41.418Z,5.38
2023-05-13T23:46:09.510Z,5.63
2023-05-13T23:48:37.458Z,5.03
2023-05-13T23:51:05.998Z,5.50
2023-05-13T23:53:33.863Z,5.32
2023-05-13T23:56:01.777Z,5.07
2023-05-13T23:58:30.969Z,5.38
